sensor_id;sensor_type;location;lat;lon;timestamp;P1;durP1;ratioP1;P2;durP2;ratioP2
67904;SDS011;54709;43.614;1.576;2023-04-08T00:00:12;3.50;;;1.20;;
67904;SDS011;54709;43.614;1.576;2023-04-08T00:02:38;1.30;;;1.00;;
67904;SDS011;54709;43.614;1.576;2023-04-08T00:05:03;1.88;;;1.15;;
67904;SDS011;54709;43.614;1.576;2023-04-08T00:07:29;3.25;;;1.05;;
67904;SDS011;54709;43.614;1.576;2023-04-08T00:09:55;2.30;;;1.20;;
67904;SDS011;54709;43.614;1.576;2023-04-08T00:12:21;2.53;;;1.40;;
67904;SDS011;54709;43.614;1.576;2023-04-08T00:14:46;1.60;;;1.10;;
67904;SDS011;54709;43.614;1.576;2023-04-08T00:17:11;1.85;;;1.30;;
67904;SDS011;54709;43.614;1.576;2023-04-08T00:19:37;1.88;;;1.27;;
67904;SDS011;54709;43.614;1.576;2023-04-08T00:22:02;1.48;;;1.30;;
67904;SDS011;54709;43.614;1.576;2023-04-08T00:24:28;2.60;;;1.20;;
67904;SDS011;54709;43.614;1.576;2023-04-08T00:26:53;1.63;;;1.10;;
67904;SDS011;54709;43.614;1.576;2023-04-08T00:29:18;2.35;;;1.30;;
67904;SDS011;54709;43.614;1.576;2023-04-08T00:31:44;3.03;;;1.30;;
67904;SDS011;54709;43.614;1.576;2023-04-08T00:34:09;1.52;;;1.20;;
67904;SDS011;54709;43.614;1.576;2023-04-08T00:36:35;3.50;;;1.20;;
67904;SDS011;54709;43.614;1.576;2023-04-08T00:39:01;1.30;;;1.20;;
67904;SDS011;54709;43.614;1.576;2023-04-08T00:41:28;1.60;;;1.13;;
67904;SDS011;54709;43.614;1.576;2023-04-08T00:43:53;1.83;;;1.20;;
67904;SDS011;54709;43.614;1.576;2023-04-08T00:46:19;1.40;;;1.10;;
67904;SDS011;54709;43.614;1.576;2023-04-08T00:48:45;1.60;;;1.13;;
67904;SDS011;54709;43.614;1.576;2023-04-08T00:51:11;2.75;;;1.30;;
67904;SDS011;54709;43.614;1.576;2023-04-08T00:53:36;2.60;;;1.60;;
67904;SDS011;54709;43.614;1.576;2023-04-08T00:56:02;1.88;;;1.35;;
67904;SDS011;54709;43.614;1.576;2023-04-08T00:58:27;3.83;;;1.45;;
67904;SDS011;54709;43.614;1.576;2023-04-08T01:00:57;1.88;;;1.30;;
67904;SDS011;54709;43.614;1.576;2023-04-08T01:06:19;2.33;;;1.60;;
67904;SDS011;54709;43.614;1.576;2023-04-08T01:08:50;3.08;;;1.60;;
67904;SDS011;54709;43.614;1.576;2023-04-08T01:11:16;2.58;;;1.52;;
67904;SDS011;54709;43.614;1.576;2023-04-08T01:13:41;2.90;;;1.30;;
67904;SDS011;54709;43.614;1.576;2023-04-08T01:16:09;2.50;;;1.60;;
67904;SDS011;54709;43.614;1.576;2023-04-08T01:18:35;2.42;;;1.50;;
67904;SDS011;54709;43.614;1.576;2023-04-08T01:21:01;4.40;;;1.77;;
67904;SDS011;54709;43.614;1.576;2023-04-08T01:25:57;3.92;;;1.80;;
67904;SDS011;54709;43.614;1.576;2023-04-08T01:28:23;3.55;;;2.42;;
67904;SDS011;54709;43.614;1.576;2023-04-08T01:30:51;3.72;;;2.42;;
67904;SDS011;54709;43.614;1.576;2023-04-08T01:33:17;4.72;;;2.97;;
67904;SDS011;54709;43.614;1.576;2023-04-08T01:35:44;4.45;;;2.08;;
67904;SDS011;54709;43.614;1.576;2023-04-08T01:38:10;4.22;;;2.97;;
67904;SDS011;54709;43.614;1.576;2023-04-08T01:40:39;3.47;;;2.58;;
67904;SDS011;54709;43.614;1.576;2023-04-08T01:43:08;6.10;;;2.80;;
67904;SDS011;54709;43.614;1.576;2023-04-08T01:45:34;3.20;;;2.42;;
67904;SDS011;54709;43.614;1.576;2023-04-08T01:47:59;2.50;;;2.30;;
67904;SDS011;54709;43.614;1.576;2023-04-08T01:50:25;6.28;;;2.67;;
67904;SDS011;54709;43.614;1.576;2023-04-08T01:52:51;3.08;;;1.98;;
67904;SDS011;54709;43.614;1.576;2023-04-08T01:55:17;3.30;;;2.33;;
67904;SDS011;54709;43.614;1.576;2023-04-08T01:57:43;4.18;;;1.92;;
67904;SDS011;54709;43.614;1.576;2023-04-08T02:00:12;3.42;;;2.00;;
67904;SDS011;54709;43.614;1.576;2023-04-08T02:02:39;3.60;;;2.00;;
67904;SDS011;54709;43.614;1.576;2023-04-08T02:05:06;2.83;;;2.00;;
67904;SDS011;54709;43.614;1.576;2023-04-08T02:07:32;4.13;;;2.08;;
67904;SDS011;54709;43.614;1.576;2023-04-08T02:09:58;3.33;;;1.80;;
67904;SDS011;54709;43.614;1.576;2023-04-08T02:12:24;4.97;;;2.30;;
67904;SDS011;54709;43.614;1.576;2023-04-08T02:14:50;3.08;;;1.77;;
67904;SDS011;54709;43.614;1.576;2023-04-08T02:17:20;2.97;;;2.10;;
67904;SDS011;54709;43.614;1.576;2023-04-08T02:19:48;3.55;;;2.20;;
67904;SDS011;54709;43.614;1.576;2023-04-08T02:22:30;5.70;;;2.40;;
67904;SDS011;54709;43.614;1.576;2023-04-08T02:24:58;3.10;;;2.60;;
67904;SDS011;54709;43.614;1.576;2023-04-08T02:27:23;2.90;;;2.20;;
67904;SDS011;54709;43.614;1.576;2023-04-08T02:29:49;3.53;;;2.40;;
67904;SDS011;54709;43.614;1.576;2023-04-08T02:32:16;2.95;;;2.10;;
67904;SDS011;54709;43.614;1.576;2023-04-08T02:34:41;2.65;;;2.00;;
67904;SDS011;54709;43.614;1.576;2023-04-08T02:37:07;4.35;;;2.30;;
67904;SDS011;54709;43.614;1.576;2023-04-08T02:39:33;3.40;;;1.92;;
67904;SDS011;54709;43.614;1.576;2023-04-08T02:41:59;3.88;;;1.73;;
67904;SDS011;54709;43.614;1.576;2023-04-08T02:44:25;3.58;;;1.92;;
67904;SDS011;54709;43.614;1.576;2023-04-08T02:46:50;2.67;;;1.98;;
67904;SDS011;54709;43.614;1.576;2023-04-08T02:49:15;2.75;;;2.10;;
67904;SDS011;54709;43.614;1.576;2023-04-08T02:51:41;3.65;;;1.73;;
67904;SDS011;54709;43.614;1.576;2023-04-08T02:54:06;2.75;;;1.80;;
67904;SDS011;54709;43.614;1.576;2023-04-08T02:56:32;4.07;;;1.83;;
67904;SDS011;54709;43.614;1.576;2023-04-08T02:58:57;4.13;;;1.88;;
67904;SDS011;54709;43.614;1.576;2023-04-08T03:01:22;3.58;;;1.70;;
67904;SDS011;54709;43.614;1.576;2023-04-08T03:03:48;2.38;;;1.45;;
67904;SDS011;54709;43.614;1.576;2023-04-08T03:06:14;2.53;;;1.42;;
67904;SDS011;54709;43.614;1.576;2023-04-08T03:08:39;4.97;;;1.52;;
67904;SDS011;54709;43.614;1.576;2023-04-08T03:11:05;2.20;;;1.60;;
67904;SDS011;54709;43.614;1.576;2023-04-08T03:13:30;4.35;;;1.67;;
67904;SDS011;54709;43.614;1.576;2023-04-08T03:15:56;4.15;;;1.70;;
67904;SDS011;54709;43.614;1.576;2023-04-08T03:18:21;2.95;;;1.38;;
67904;SDS011;54709;43.614;1.576;2023-04-08T03:20:47;3.83;;;1.35;;
67904;SDS011;54709;43.614;1.576;2023-04-08T03:23:12;4.95;;;1.67;;
67904;SDS011;54709;43.614;1.576;2023-04-08T03:25:37;2.00;;;1.30;;
67904;SDS011;54709;43.614;1.576;2023-04-08T03:28:03;3.40;;;1.60;;
67904;SDS011;54709;43.614;1.576;2023-04-08T03:30:28;4.40;;;1.65;;
67904;SDS011;54709;43.614;1.576;2023-04-08T03:32:54;2.05;;;1.55;;
67904;SDS011;54709;43.614;1.576;2023-04-08T03:35:19;2.50;;;1.40;;
67904;SDS011;54709;43.614;1.576;2023-04-08T03:37:45;4.90;;;1.60;;
67904;SDS011;54709;43.614;1.576;2023-04-08T03:40:11;2.17;;;1.48;;
67904;SDS011;54709;43.614;1.576;2023-04-08T03:42:37;4.68;;;1.58;;
67904;SDS011;54709;43.614;1.576;2023-04-08T03:45:02;2.72;;;1.52;;
67904;SDS011;54709;43.614;1.576;2023-04-08T03:47:28;4.88;;;1.88;;
67904;SDS011;54709;43.614;1.576;2023-04-08T03:49:53;2.40;;;1.60;;
67904;SDS011;54709;43.614;1.576;2023-04-08T03:52:19;3.38;;;1.95;;
67904;SDS011;54709;43.614;1.576;2023-04-08T03:54:44;4.18;;;1.60;;
67904;SDS011;54709;43.614;1.576;2023-04-08T03:57:10;3.08;;;1.58;;
67904;SDS011;54709;43.614;1.576;2023-04-08T03:59:36;5.03;;;1.80;;
67904;SDS011;54709;43.614;1.576;2023-04-08T04:02:03;2.28;;;1.58;;
67904;SDS011;54709;43.614;1.576;2023-04-08T04:04:29;4.60;;;1.92;;
67904;SDS011;54709;43.614;1.576;2023-04-08T04:06:54;3.58;;;2.28;;
67904;SDS011;54709;43.614;1.576;2023-04-08T04:09:20;2.50;;;1.80;;
67904;SDS011;54709;43.614;1.576;2023-04-08T04:11:45;3.75;;;1.95;;
67904;SDS011;54709;43.614;1.576;2023-04-08T04:14:11;3.20;;;2.00;;
67904;SDS011;54709;43.614;1.576;2023-04-08T04:16:36;3.10;;;1.80;;
67904;SDS011;54709;43.614;1.576;2023-04-08T04:19:02;2.90;;;1.90;;
67904;SDS011;54709;43.614;1.576;2023-04-08T04:21:27;3.80;;;1.70;;
67904;SDS011;54709;43.614;1.576;2023-04-08T04:23:52;3.97;;;1.83;;
67904;SDS011;54709;43.614;1.576;2023-04-08T04:26:18;2.30;;;1.42;;
67904;SDS011;54709;43.614;1.576;2023-04-08T04:28:43;2.65;;;1.70;;
67904;SDS011;54709;43.614;1.576;2023-04-08T04:31:16;2.47;;;1.80;;
67904;SDS011;54709;43.614;1.576;2023-04-08T04:33:48;4.35;;;1.65;;
67904;SDS011;54709;43.614;1.576;2023-04-08T04:36:13;1.60;;;1.38;;
67904;SDS011;54709;43.614;1.576;2023-04-08T04:38:39;4.03;;;1.60;;
67904;SDS011;54709;43.614;1.576;2023-04-08T04:41:05;7.18;;;1.90;;
67904;SDS011;54709;43.614;1.576;2023-04-08T04:43:30;3.70;;;2.10;;
67904;SDS011;54709;43.614;1.576;2023-04-08T04:45:56;7.22;;;1.90;;
67904;SDS011;54709;43.614;1.576;2023-04-08T04:48:21;3.33;;;1.80;;
67904;SDS011;54709;43.614;1.576;2023-04-08T04:50:57;4.25;;;1.77;;
67904;SDS011;54709;43.614;1.576;2023-04-08T04:53:23;3.03;;;1.92;;
67904;SDS011;54709;43.614;1.576;2023-04-08T04:55:51;3.85;;;2.03;;
67904;SDS011;54709;43.614;1.576;2023-04-08T04:58:16;6.40;;;2.47;;
67904;SDS011;54709;43.614;1.576;2023-04-08T05:00:43;2.92;;;2.00;;
67904;SDS011;54709;43.614;1.576;2023-04-08T05:03:08;3.58;;;2.20;;
67904;SDS011;54709;43.614;1.576;2023-04-08T05:05:34;3.60;;;2.10;;
67904;SDS011;54709;43.614;1.576;2023-04-08T05:07:59;3.42;;;2.17;;
67904;SDS011;54709;43.614;1.576;2023-04-08T05:10:25;2.60;;;1.90;;
67904;SDS011;54709;43.614;1.576;2023-04-08T05:12:50;4.95;;;2.10;;
67904;SDS011;54709;43.614;1.576;2023-04-08T05:15:16;4.00;;;2.08;;
67904;SDS011;54709;43.614;1.576;2023-04-08T05:17:41;4.85;;;1.88;;
67904;SDS011;54709;43.614;1.576;2023-04-08T05:20:07;4.00;;;2.20;;
67904;SDS011;54709;43.614;1.576;2023-04-08T05:22:32;4.63;;;2.03;;
67904;SDS011;54709;43.614;1.576;2023-04-08T05:24:58;4.47;;;1.77;;
67904;SDS011;54709;43.614;1.576;2023-04-08T05:27:24;5.10;;;2.13;;
67904;SDS011;54709;43.614;1.576;2023-04-08T05:29:49;2.65;;;2.10;;
67904;SDS011;54709;43.614;1.576;2023-04-08T05:32:15;3.45;;;1.85;;
67904;SDS011;54709;43.614;1.576;2023-04-08T05:34:41;3.65;;;1.90;;
67904;SDS011;54709;43.614;1.576;2023-04-08T05:37:06;2.85;;;1.90;;
67904;SDS011;54709;43.614;1.576;2023-04-08T05:39:32;3.67;;;2.17;;
67904;SDS011;54709;43.614;1.576;2023-04-08T05:41:57;3.67;;;2.10;;
67904;SDS011;54709;43.614;1.576;2023-04-08T05:44:22;6.03;;;2.22;;
67904;SDS011;54709;43.614;1.576;2023-04-08T05:46:48;2.72;;;1.95;;
67904;SDS011;54709;43.614;1.576;2023-04-08T05:49:13;4.68;;;2.55;;
67904;SDS011;54709;43.614;1.576;2023-04-08T05:51:41;3.00;;;2.05;;
67904;SDS011;54709;43.614;1.576;2023-04-08T05:54:06;4.28;;;2.00;;
67904;SDS011;54709;43.614;1.576;2023-04-08T05:56:31;3.00;;;2.30;;
67904;SDS011;54709;43.614;1.576;2023-04-08T05:58:57;5.78;;;2.42;;
67904;SDS011;54709;43.614;1.576;2023-04-08T06:01:22;4.80;;;2.60;;
67904;SDS011;54709;43.614;1.576;2023-04-08T06:03:49;2.83;;;2.10;;
67904;SDS011;54709;43.614;1.576;2023-04-08T06:06:16;3.28;;;2.20;;
67904;SDS011;54709;43.614;1.576;2023-04-08T06:08:41;4.43;;;2.40;;
67904;SDS011;54709;43.614;1.576;2023-04-08T06:11:07;5.25;;;1.95;;
67904;SDS011;54709;43.614;1.576;2023-04-08T06:13:32;2.75;;;2.25;;
67904;SDS011;54709;43.614;1.576;2023-04-08T06:15:58;4.07;;;2.20;;
67904;SDS011;54709;43.614;1.576;2023-04-08T06:18:23;3.03;;;2.30;;
67904;SDS011;54709;43.614;1.576;2023-04-08T06:20:49;2.65;;;1.95;;
67904;SDS011;54709;43.614;1.576;2023-04-08T06:23:15;5.25;;;2.25;;
67904;SDS011;54709;43.614;1.576;2023-04-08T06:25:40;13.05;;;2.45;;
67904;SDS011;54709;43.614;1.576;2023-04-08T06:28:06;4.75;;;2.47;;
67904;SDS011;54709;43.614;1.576;2023-04-08T06:30:31;6.53;;;2.47;;
67904;SDS011;54709;43.614;1.576;2023-04-08T06:32:56;3.88;;;2.33;;
67904;SDS011;54709;43.614;1.576;2023-04-08T06:35:22;4.55;;;2.58;;
67904;SDS011;54709;43.614;1.576;2023-04-08T06:37:47;4.22;;;2.45;;
67904;SDS011;54709;43.614;1.576;2023-04-08T06:40:13;4.50;;;2.38;;
67904;SDS011;54709;43.614;1.576;2023-04-08T06:42:38;3.65;;;2.25;;
67904;SDS011;54709;43.614;1.576;2023-04-08T06:45:06;3.17;;;2.33;;
67904;SDS011;54709;43.614;1.576;2023-04-08T06:47:32;4.05;;;2.42;;
67904;SDS011;54709;43.614;1.576;2023-04-08T06:49:57;4.20;;;2.30;;
67904;SDS011;54709;43.614;1.576;2023-04-08T06:52:23;3.22;;;2.42;;
67904;SDS011;54709;43.614;1.576;2023-04-08T06:54:48;3.72;;;2.13;;
67904;SDS011;54709;43.614;1.576;2023-04-08T06:57:14;3.88;;;2.40;;
67904;SDS011;54709;43.614;1.576;2023-04-08T06:59:39;3.47;;;2.10;;
67904;SDS011;54709;43.614;1.576;2023-04-08T07:02:05;4.47;;;2.33;;
67904;SDS011;54709;43.614;1.576;2023-04-08T07:04:31;4.43;;;2.10;;
67904;SDS011;54709;43.614;1.576;2023-04-08T07:06:56;3.42;;;2.05;;
67904;SDS011;54709;43.614;1.576;2023-04-08T07:09:21;3.40;;;2.00;;
67904;SDS011;54709;43.614;1.576;2023-04-08T07:11:47;3.17;;;1.90;;
67904;SDS011;54709;43.614;1.576;2023-04-08T07:14:12;3.25;;;1.70;;
67904;SDS011;54709;43.614;1.576;2023-04-08T07:16:37;3.20;;;1.95;;
67904;SDS011;54709;43.614;1.576;2023-04-08T07:19:03;4.03;;;1.90;;
67904;SDS011;54709;43.614;1.576;2023-04-08T07:21:28;5.60;;;1.83;;
67904;SDS011;54709;43.614;1.576;2023-04-08T07:23:55;2.95;;;1.77;;
67904;SDS011;54709;43.614;1.576;2023-04-08T07:26:20;5.35;;;2.00;;
67904;SDS011;54709;43.614;1.576;2023-04-08T07:28:46;5.38;;;2.03;;
67904;SDS011;54709;43.614;1.576;2023-04-08T07:31:12;4.55;;;1.83;;
67904;SDS011;54709;43.614;1.576;2023-04-08T07:33:39;4.03;;;1.90;;
67904;SDS011;54709;43.614;1.576;2023-04-08T07:36:05;3.50;;;1.70;;
67904;SDS011;54709;43.614;1.576;2023-04-08T07:38:31;3.45;;;1.83;;
67904;SDS011;54709;43.614;1.576;2023-04-08T07:40:56;3.67;;;1.70;;
67904;SDS011;54709;43.614;1.576;2023-04-08T07:43:22;5.53;;;1.85;;
67904;SDS011;54709;43.614;1.576;2023-04-08T07:45:47;5.18;;;2.03;;
67904;SDS011;54709;43.614;1.576;2023-04-08T07:48:12;7.85;;;1.80;;
67904;SDS011;54709;43.614;1.576;2023-04-08T07:50:38;2.47;;;1.77;;
67904;SDS011;54709;43.614;1.576;2023-04-08T07:53:03;2.85;;;1.80;;
67904;SDS011;54709;43.614;1.576;2023-04-08T07:55:37;2.83;;;1.67;;
67904;SDS011;54709;43.614;1.576;2023-04-08T07:58:04;4.28;;;1.70;;
67904;SDS011;54709;43.614;1.576;2023-04-08T08:00:29;2.15;;;1.50;;
67904;SDS011;54709;43.614;1.576;2023-04-08T08:02:57;3.92;;;1.80;;
67904;SDS011;54709;43.614;1.576;2023-04-08T08:05:22;1.90;;;1.27;;
67904;SDS011;54709;43.614;1.576;2023-04-08T08:07:47;4.45;;;1.50;;
67904;SDS011;54709;43.614;1.576;2023-04-08T08:10:14;2.58;;;1.30;;
67904;SDS011;54709;43.614;1.576;2023-04-08T08:12:39;1.73;;;1.20;;
67904;SDS011;54709;43.614;1.576;2023-04-08T08:15:05;1.55;;;1.10;;
67904;SDS011;54709;43.614;1.576;2023-04-08T08:17:31;2.10;;;1.48;;
67904;SDS011;54709;43.614;1.576;2023-04-08T08:19:58;3.38;;;1.30;;
67904;SDS011;54709;43.614;1.576;2023-04-08T08:22:26;3.83;;;1.30;;
67904;SDS011;54709;43.614;1.576;2023-04-08T08:24:55;5.18;;;2.58;;
67904;SDS011;54709;43.614;1.576;2023-04-08T08:27:21;7.15;;;3.10;;
67904;SDS011;54709;43.614;1.576;2023-04-08T08:29:47;5.65;;;2.92;;
67904;SDS011;54709;43.614;1.576;2023-04-08T08:32:12;2.92;;;1.55;;
67904;SDS011;54709;43.614;1.576;2023-04-08T08:34:38;4.45;;;2.00;;
67904;SDS011;54709;43.614;1.576;2023-04-08T08:37:03;4.43;;;2.33;;
67904;SDS011;54709;43.614;1.576;2023-04-08T08:39:28;3.53;;;1.80;;
67904;SDS011;54709;43.614;1.576;2023-04-08T08:41:54;2.90;;;1.38;;
67904;SDS011;54709;43.614;1.576;2023-04-08T08:44:20;3.28;;;1.30;;
67904;SDS011;54709;43.614;1.576;2023-04-08T08:46:46;3.45;;;1.30;;
67904;SDS011;54709;43.614;1.576;2023-04-08T08:49:12;3.25;;;1.52;;
67904;SDS011;54709;43.614;1.576;2023-04-08T08:51:38;3.85;;;1.55;;
67904;SDS011;54709;43.614;1.576;2023-04-08T08:54:04;1.70;;;1.30;;
67904;SDS011;54709;43.614;1.576;2023-04-08T08:56:31;2.38;;;1.42;;
67904;SDS011;54709;43.614;1.576;2023-04-08T08:58:57;1.75;;;1.13;;
67904;SDS011;54709;43.614;1.576;2023-04-08T09:04:10;3.22;;;1.30;;
67904;SDS011;54709;43.614;1.576;2023-04-08T09:06:38;3.55;;;1.20;;
67904;SDS011;54709;43.614;1.576;2023-04-08T09:09:03;1.80;;;1.33;;
67904;SDS011;54709;43.614;1.576;2023-04-08T09:11:44;1.40;;;1.23;;
67904;SDS011;54709;43.614;1.576;2023-04-08T09:14:20;3.17;;;1.00;;
67904;SDS011;54709;43.614;1.576;2023-04-08T09:16:47;2.88;;;1.15;;
67904;SDS011;54709;43.614;1.576;2023-04-08T09:19:12;3.33;;;0.98;;
67904;SDS011;54709;43.614;1.576;2023-04-08T09:21:38;2.58;;;1.30;;
67904;SDS011;54709;43.614;1.576;2023-04-08T09:24:05;4.53;;;1.20;;
67904;SDS011;54709;43.614;1.576;2023-04-08T09:26:32;5.15;;;1.20;;
67904;SDS011;54709;43.614;1.576;2023-04-08T09:31:27;3.92;;;0.90;;
67904;SDS011;54709;43.614;1.576;2023-04-08T09:33:54;10.88;;;1.10;;
67904;SDS011;54709;43.614;1.576;2023-04-08T09:36:20;3.42;;;1.10;;
67904;SDS011;54709;43.614;1.576;2023-04-08T09:38:46;5.10;;;1.10;;
67904;SDS011;54709;43.614;1.576;2023-04-08T09:41:13;4.38;;;1.15;;
67904;SDS011;54709;43.614;1.576;2023-04-08T09:44:03;3.47;;;1.10;;
67904;SDS011;54709;43.614;1.576;2023-04-08T09:51:58;4.00;;;1.05;;
67904;SDS011;54709;43.614;1.576;2023-04-08T09:57:45;2.78;;;0.90;;
67904;SDS011;54709;43.614;1.576;2023-04-08T10:00:18;4.30;;;1.20;;
67904;SDS011;54709;43.614;1.576;2023-04-08T10:05:36;1.85;;;1.02;;
67904;SDS011;54709;43.614;1.576;2023-04-08T10:08:02;2.47;;;0.95;;
67904;SDS011;54709;43.614;1.576;2023-04-08T10:10:28;4.95;;;1.00;;
67904;SDS011;54709;43.614;1.576;2023-04-08T10:12:53;2.65;;;1.20;;
67904;SDS011;54709;43.614;1.576;2023-04-08T10:15:26;3.03;;;1.00;;
67904;SDS011;54709;43.614;1.576;2023-04-08T10:17:53;4.28;;;1.45;;
67904;SDS011;54709;43.614;1.576;2023-04-08T10:23:02;2.47;;;0.90;;
67904;SDS011;54709;43.614;1.576;2023-04-08T10:25:32;2.80;;;1.02;;
67904;SDS011;54709;43.614;1.576;2023-04-08T10:33:21;2.08;;;1.00;;
67904;SDS011;54709;43.614;1.576;2023-04-08T10:38:33;6.10;;;1.10;;
67904;SDS011;54709;43.614;1.576;2023-04-08T10:40:59;2.95;;;1.05;;
67904;SDS011;54709;43.614;1.576;2023-04-08T10:43:24;3.40;;;1.10;;
67904;SDS011;54709;43.614;1.576;2023-04-08T10:45:52;2.40;;;1.00;;
67904;SDS011;54709;43.614;1.576;2023-04-08T10:48:21;1.15;;;0.80;;
67904;SDS011;54709;43.614;1.576;2023-04-08T10:50:52;1.90;;;0.93;;
67904;SDS011;54709;43.614;1.576;2023-04-08T10:53:30;2.03;;;1.00;;
67904;SDS011;54709;43.614;1.576;2023-04-08T10:56:03;2.67;;;0.90;;
67904;SDS011;54709;43.614;1.576;2023-04-08T10:58:32;2.10;;;1.05;;
67904;SDS011;54709;43.614;1.576;2023-04-08T11:01:07;1.90;;;1.00;;
67904;SDS011;54709;43.614;1.576;2023-04-08T11:03:33;2.85;;;1.02;;
67904;SDS011;54709;43.614;1.576;2023-04-08T11:05:59;4.03;;;1.02;;
67904;SDS011;54709;43.614;1.576;2023-04-08T11:08:27;3.97;;;0.98;;
67904;SDS011;54709;43.614;1.576;2023-04-08T11:10:53;1.35;;;0.90;;
67904;SDS011;54709;43.614;1.576;2023-04-08T11:13:19;2.97;;;0.90;;
67904;SDS011;54709;43.614;1.576;2023-04-08T11:15:44;1.88;;;0.90;;
67904;SDS011;54709;43.614;1.576;2023-04-08T11:18:09;3.45;;;1.30;;
67904;SDS011;54709;43.614;1.576;2023-04-08T11:20:35;2.22;;;0.90;;
67904;SDS011;54709;43.614;1.576;2023-04-08T11:23:01;2.20;;;0.82;;
67904;SDS011;54709;43.614;1.576;2023-04-08T11:25:27;1.77;;;0.90;;
67904;SDS011;54709;43.614;1.576;2023-04-08T11:27:53;2.20;;;1.10;;
67904;SDS011;54709;43.614;1.576;2023-04-08T11:30:18;2.45;;;0.75;;
67904;SDS011;54709;43.614;1.576;2023-04-08T11:32:44;1.52;;;0.80;;
67904;SDS011;54709;43.614;1.576;2023-04-08T11:35:09;4.53;;;1.17;;
67904;SDS011;54709;43.614;1.576;2023-04-08T11:37:36;2.53;;;0.90;;
67904;SDS011;54709;43.614;1.576;2023-04-08T11:40:05;3.33;;;1.00;;
67904;SDS011;54709;43.614;1.576;2023-04-08T11:42:32;1.63;;;0.88;;
67904;SDS011;54709;43.614;1.576;2023-04-08T11:44:57;2.20;;;0.80;;
67904;SDS011;54709;43.614;1.576;2023-04-08T11:47:32;2.00;;;0.90;;
67904;SDS011;54709;43.614;1.576;2023-04-08T11:49:58;1.65;;;0.80;;
67904;SDS011;54709;43.614;1.576;2023-04-08T11:52:39;1.63;;;0.93;;
67904;SDS011;54709;43.614;1.576;2023-04-08T11:55:05;3.17;;;0.82;;
67904;SDS011;54709;43.614;1.576;2023-04-08T11:57:31;2.63;;;1.00;;
67904;SDS011;54709;43.614;1.576;2023-04-08T11:59:56;1.42;;;0.90;;
67904;SDS011;54709;43.614;1.576;2023-04-08T12:02:22;2.60;;;1.33;;
67904;SDS011;54709;43.614;1.576;2023-04-08T12:04:48;4.13;;;0.98;;
67904;SDS011;54709;43.614;1.576;2023-04-08T12:07:13;1.75;;;0.68;;
67904;SDS011;54709;43.614;1.576;2023-04-08T12:09:38;3.35;;;0.90;;
67904;SDS011;54709;43.614;1.576;2023-04-08T12:12:05;1.15;;;0.68;;
67904;SDS011;54709;43.614;1.576;2023-04-08T12:14:31;2.65;;;0.70;;
67904;SDS011;54709;43.614;1.576;2023-04-08T12:16:56;3.00;;;0.90;;
67904;SDS011;54709;43.614;1.576;2023-04-08T12:19:22;2.15;;;0.80;;
67904;SDS011;54709;43.614;1.576;2023-04-08T12:21:47;0.93;;;0.70;;
67904;SDS011;54709;43.614;1.576;2023-04-08T12:24:12;2.83;;;0.70;;
67904;SDS011;54709;43.614;1.576;2023-04-08T12:26:38;0.70;;;0.70;;
67904;SDS011;54709;43.614;1.576;2023-04-08T12:29:03;3.08;;;0.70;;
67904;SDS011;54709;43.614;1.576;2023-04-08T12:31:29;1.08;;;0.50;;
67904;SDS011;54709;43.614;1.576;2023-04-08T12:33:54;0.60;;;0.40;;
67904;SDS011;54709;43.614;1.576;2023-04-08T12:36:19;3.25;;;0.60;;
67904;SDS011;54709;43.614;1.576;2023-04-08T12:38:45;1.70;;;0.52;;
67904;SDS011;54709;43.614;1.576;2023-04-08T12:41:10;0.77;;;0.63;;
67904;SDS011;54709;43.614;1.576;2023-04-08T12:43:35;1.35;;;0.60;;
67904;SDS011;54709;43.614;1.576;2023-04-08T12:46:01;1.00;;;0.40;;
67904;SDS011;54709;43.614;1.576;2023-04-08T12:48:27;1.25;;;0.52;;
67904;SDS011;54709;43.614;1.576;2023-04-08T12:50:52;0.73;;;0.52;;
67904;SDS011;54709;43.614;1.576;2023-04-08T12:53:18;0.93;;;0.68;;
67904;SDS011;54709;43.614;1.576;2023-04-08T12:55:43;2.67;;;0.70;;
67904;SDS011;54709;43.614;1.576;2023-04-08T12:58:08;1.23;;;0.70;;
67904;SDS011;54709;43.614;1.576;2023-04-08T13:00:34;2.65;;;0.65;;
67904;SDS011;54709;43.614;1.576;2023-04-08T13:03:02;1.20;;;0.70;;
67904;SDS011;54709;43.614;1.576;2023-04-08T13:05:27;2.55;;;0.60;;
67904;SDS011;54709;43.614;1.576;2023-04-08T13:07:53;1.13;;;0.60;;
67904;SDS011;54709;43.614;1.576;2023-04-08T13:10:18;0.90;;;0.70;;
67904;SDS011;54709;43.614;1.576;2023-04-08T13:12:44;0.95;;;0.60;;
67904;SDS011;54709;43.614;1.576;2023-04-08T13:15:09;2.30;;;0.82;;
67904;SDS011;54709;43.614;1.576;2023-04-08T13:17:35;1.90;;;0.70;;
67904;SDS011;54709;43.614;1.576;2023-04-08T13:20:00;0.90;;;0.70;;
67904;SDS011;54709;43.614;1.576;2023-04-08T13:22:26;1.73;;;0.70;;
67904;SDS011;54709;43.614;1.576;2023-04-08T13:24:52;1.35;;;0.65;;
67904;SDS011;54709;43.614;1.576;2023-04-08T13:27:17;0.98;;;0.50;;
67904;SDS011;54709;43.614;1.576;2023-04-08T13:29:42;2.03;;;0.60;;
67904;SDS011;54709;43.614;1.576;2023-04-08T13:32:08;0.90;;;0.60;;
67904;SDS011;54709;43.614;1.576;2023-04-08T13:34:33;1.67;;;0.70;;
67904;SDS011;54709;43.614;1.576;2023-04-08T13:36:58;3.45;;;0.90;;
67904;SDS011;54709;43.614;1.576;2023-04-08T13:39:24;2.33;;;0.65;;
67904;SDS011;54709;43.614;1.576;2023-04-08T13:41:49;1.38;;;0.65;;
67904;SDS011;54709;43.614;1.576;2023-04-08T13:44:15;3.17;;;0.80;;
67904;SDS011;54709;43.614;1.576;2023-04-08T13:46:41;1.02;;;0.50;;
67904;SDS011;54709;43.614;1.576;2023-04-08T13:49:06;4.47;;;0.90;;
67904;SDS011;54709;43.614;1.576;2023-04-08T13:51:31;1.25;;;0.73;;
67904;SDS011;54709;43.614;1.576;2023-04-08T13:53:57;1.05;;;0.50;;
67904;SDS011;54709;43.614;1.576;2023-04-08T13:56:22;1.83;;;0.50;;
67904;SDS011;54709;43.614;1.576;2023-04-08T13:58:47;1.20;;;0.60;;
67904;SDS011;54709;43.614;1.576;2023-04-08T14:01:13;1.98;;;0.70;;
67904;SDS011;54709;43.614;1.576;2023-04-08T14:03:38;1.30;;;0.52;;
67904;SDS011;54709;43.614;1.576;2023-04-08T14:06:04;2.03;;;0.70;;
67904;SDS011;54709;43.614;1.576;2023-04-08T14:08:29;2.83;;;0.70;;
67904;SDS011;54709;43.614;1.576;2023-04-08T14:10:55;1.27;;;0.52;;
67904;SDS011;54709;43.614;1.576;2023-04-08T14:13:21;0.80;;;0.50;;
67904;SDS011;54709;43.614;1.576;2023-04-08T14:15:46;1.05;;;0.70;;
67904;SDS011;54709;43.614;1.576;2023-04-08T14:18:13;1.25;;;0.50;;
67904;SDS011;54709;43.614;1.576;2023-04-08T14:20:41;2.20;;;0.80;;
67904;SDS011;54709;43.614;1.576;2023-04-08T14:23:06;2.97;;;0.60;;
67904;SDS011;54709;43.614;1.576;2023-04-08T14:25:32;1.02;;;0.52;;
67904;SDS011;54709;43.614;1.576;2023-04-08T14:27:57;2.80;;;0.52;;
67904;SDS011;54709;43.614;1.576;2023-04-08T14:30:22;4.35;;;0.70;;
67904;SDS011;54709;43.614;1.576;2023-04-08T14:32:48;0.55;;;0.43;;
67904;SDS011;54709;43.614;1.576;2023-04-08T14:35:13;1.20;;;0.60;;
67904;SDS011;54709;43.614;1.576;2023-04-08T14:37:39;2.58;;;0.60;;
67904;SDS011;54709;43.614;1.576;2023-04-08T14:40:04;1.50;;;0.50;;
67904;SDS011;54709;43.614;1.576;2023-04-08T14:42:30;1.85;;;0.60;;
67904;SDS011;54709;43.614;1.576;2023-04-08T14:44:56;2.17;;;0.65;;
67904;SDS011;54709;43.614;1.576;2023-04-08T14:47:21;2.08;;;0.75;;
67904;SDS011;54709;43.614;1.576;2023-04-08T14:49:47;0.90;;;0.68;;
67904;SDS011;54709;43.614;1.576;2023-04-08T14:52:13;2.30;;;0.60;;
67904;SDS011;54709;43.614;1.576;2023-04-08T14:54:38;1.08;;;0.70;;
67904;SDS011;54709;43.614;1.576;2023-04-08T14:57:03;2.65;;;0.70;;
67904;SDS011;54709;43.614;1.576;2023-04-08T14:59:29;2.78;;;0.82;;
67904;SDS011;54709;43.614;1.576;2023-04-08T15:01:54;1.75;;;0.65;;
67904;SDS011;54709;43.614;1.576;2023-04-08T15:04:19;2.30;;;0.50;;
67904;SDS011;54709;43.614;1.576;2023-04-08T15:06:45;1.88;;;0.45;;
67904;SDS011;54709;43.614;1.576;2023-04-08T15:09:10;2.05;;;0.47;;
67904;SDS011;54709;43.614;1.576;2023-04-08T15:11:36;0.82;;;0.50;;
67904;SDS011;54709;43.614;1.576;2023-04-08T15:14:01;0.93;;;0.50;;